createdAt,value
2022-11-27T00:00:56.103Z,3.65
2022-11-27T00:03:58.404Z,3.62
2022-11-27T00:07:00.521Z,3.72
2022-11-27T00:10:02.912Z,3.61
2022-11-27T00:13:04.814Z,3.64
2022-11-27T00:16:07.573Z,3.62
2022-11-27T00:19:10.316Z,3.56
2022-11-27T00:22:12.570Z,3.67
2022-11-27T00:25:14.434Z,3.55
2022-11-27T00:28:16.666Z,3.44
2022-11-27T00:31:22.799Z,3.57
2022-11-27T00:34:25.101Z,3.69
2022-11-27T00:37:27.084Z,3.56
2022-11-27T00:40:29.306Z,3.56
2022-11-27T00:43:31.410Z,3.55
2022-11-27T00:46:40.796Z,3.49
2022-11-27T00:49:42.860Z,3.50
2022-11-27T00:52:45.100Z,3.42
2022-11-27T00:55:47.060Z,3.30
2022-11-27T00:58:49.373Z,3.18
2022-11-27T01:01:51.393Z,3.10
2022-11-27T01:04:53.618Z,3.09
2022-11-27T01:07:55.596Z,3.09
2022-11-27T01:10:58.577Z,3.17
2022-11-27T01:14:02.324Z,3.17
2022-11-27T01:17:04.584Z,3.16
2022-11-27T01:20:06.862Z,3.20
2022-11-27T01:23:09.772Z,3.44
2022-11-27T01:26:12.263Z,3.31
2022-11-27T01:29:14.564Z,3.11
2022-11-27T01:32:16.491Z,3.14
2022-11-27T01:35:18.785Z,3.09
2022-11-27T01:38:20.896Z,3.23
2022-11-27T01:41:30.945Z,3.23
2022-11-27T01:44:32.799Z,3.12
2022-11-27T01:47:38.095Z,3.06
2022-11-27T01:50:40.275Z,3.12
2022-11-27T01:53:42.680Z,3.03
2022-11-27T01:56:46.121Z,3.19
2022-11-27T01:59:49.172Z,3.10
2022-11-27T02:02:51.180Z,3.00
2022-11-27T02:05:53.519Z,2.99
2022-11-27T02:08:56.090Z,2.96
2022-11-27T02:11:58.232Z,3.16
2022-11-27T02:15:00.202Z,3.23
2022-11-27T02:18:12.314Z,3.16
2022-11-27T02:21:34.469Z,3.02
2022-11-27T02:24:36.599Z,2.90
2022-11-27T02:27:38.435Z,3.10
2022-11-27T02:30:43.752Z,3.14
2022-11-27T02:33:50.336Z,3.12
2022-11-27T02:37:02.193Z,2.97
2022-11-27T02:40:22.894Z,2.82
2022-11-27T02:43:34.134Z,2.78
2022-11-27T02:46:36.838Z,2.78
2022-11-27T02:49:41.046Z,2.85
2022-11-27T02:52:44.946Z,2.87
2022-11-27T02:55:48.474Z,2.95
2022-11-27T02:58:51.114Z,3.00
2022-11-27T03:01:55.888Z,3.05
2022-11-27T03:05:00.194Z,3.21
2022-11-27T03:08:07.623Z,3.18
2022-11-27T03:11:11.197Z,3.15
2022-11-27T03:14:14.437Z,3.11
2022-11-27T03:17:21.289Z,3.04
2022-11-27T03:20:28.613Z,3.02
2022-11-27T03:23:30.518Z,3.03
2022-11-27T03:26:32.923Z,3.01
2022-11-27T03:29:35.249Z,3.08
2022-11-27T03:32:37.540Z,3.13
2022-11-27T03:35:39.425Z,3.14
2022-11-27T03:38:42.413Z,3.18
2022-11-27T03:41:44.252Z,3.25
2022-11-27T03:44:49.731Z,3.24
2022-11-27T03:47:57.712Z,3.23
2022-11-27T03:51:20.716Z,3.19
2022-11-27T03:54:30.321Z,3.11
2022-11-27T03:57:52.795Z,3.08
2022-11-27T04:00:56.191Z,3.04
2022-11-27T04:03:58.417Z,2.97
2022-11-27T04:07:00.393Z,2.94
2022-11-27T04:10:03.369Z,2.89
2022-11-27T04:13:05.310Z,2.89
2022-11-27T04:16:07.757Z,2.95
2022-11-27T04:19:09.806Z,3.07
2022-11-27T04:22:12.007Z,3.06
2022-11-27T04:25:13.892Z,3.01
2022-11-27T04:28:17.603Z,2.96
2022-11-27T04:31:19.557Z,3.00
2022-11-27T04:34:21.861Z,3.07
2022-11-27T04:37:23.732Z,3.18
2022-11-27T04:40:25.977Z,3.27
2022-11-27T04:43:28.417Z,3.35
2022-11-27T04:46:30.636Z,3.49
2022-11-27T04:49:32.645Z,3.63
2022-11-27T04:52:34.861Z,3.76
2022-11-27T04:55:36.851Z,3.85
2022-11-27T04:58:39.001Z,3.92
2022-11-27T05:01:41.258Z,3.98
2022-11-27T05:04:43.517Z,4.13
2022-11-27T05:07:45.486Z,4.13
2022-11-27T05:10:57.776Z,3.99
2022-11-27T05:14:18.302Z,3.99
2022-11-27T05:17:20.637Z,4.09
2022-11-27T05:20:22.559Z,4.16
2022-11-27T05:23:25.275Z,4.32
2022-11-27T05:26:27.170Z,4.38
2022-11-27T05:29:29.787Z,4.42
2022-11-27T05:32:31.707Z,4.51
2022-11-27T05:35:34.054Z,4.44
2022-11-27T05:38:35.956Z,4.55
2022-11-27T05:41:39.247Z,4.63
2022-11-27T05:44:41.281Z,4.56
2022-11-27T05:47:43.767Z,4.55
2022-11-27T05:50:46.168Z,4.53
2022-11-27T05:53:49.439Z,4.55
2022-11-27T05:56:51.540Z,4.56
2022-11-27T05:59:54.144Z,4.61
2022-11-27T06:02:56.575Z,4.72
2022-11-27T06:05:58.855Z,4.79
2022-11-27T06:09:00.824Z,4.83
2022-11-27T06:12:03.057Z,4.76
2022-11-27T06:15:05.302Z,4.78
2022-11-27T06:18:07.856Z,4.88
2022-11-27T06:21:10.720Z,4.87
2022-11-27T06:24:12.989Z,4.94
2022-11-27T06:27:15.009Z,4.98
2022-11-27T06:30:17.519Z,4.90
2022-11-27T06:33:19.411Z,4.89
2022-11-27T06:36:22.273Z,5.04
2022-11-27T06:39:24.175Z,5.06
2022-11-27T06:42:29.038Z,5.01
2022-11-27T06:45:31.274Z,4.96
2022-11-27T06:48:34.121Z,4.93
2022-11-27T06:51:36.208Z,5.10
2022-11-27T06:54:40.003Z,5.23
2022-11-27T06:57:42.119Z,5.20
2022-11-27T07:00:44.303Z,5.22
2022-11-27T07:03:46.309Z,5.18
2022-11-27T07:06:48.580Z,5.14
2022-11-27T07:09:50.472Z,5.19
2022-11-27T07:12:52.641Z,5.26
2022-11-27T07:15:54.535Z,5.27
2022-11-27T07:18:58.667Z,5.25
2022-11-27T07:22:00.632Z,5.28
2022-11-27T07:25:02.895Z,5.29
2022-11-27T07:28:04.793Z,5.21
2022-11-27T07:31:07.047Z,5.26
2022-11-27T07:34:14.971Z,5.31
2022-11-27T07:37:18.324Z,5.38
2022-11-27T07:40:20.233Z,5.40
2022-11-27T07:43:22.433Z,5.43
2022-11-27T07:46:25.581Z,5.29
2022-11-27T07:49:27.797Z,5.40
2022-11-27T07:52:29.684Z,5.27
2022-11-27T07:55:31.829Z,5.44
2022-11-27T07:58:33.781Z,5.43
2022-11-27T08:01:36.026Z,5.47
2022-11-27T08:04:38.459Z,5.69
2022-11-27T08:07:40.967Z,5.60
2022-11-27T08:10:43.650Z,5.71
2022-11-27T08:13:45.576Z,5.86
2022-11-27T08:16:47.759Z,5.87
2022-11-27T08:19:49.825Z,5.81
2022-11-27T08:22:52.073Z,5.94
2022-11-27T08:25:54.036Z,5.91
2022-11-27T08:28:56.768Z,5.85
2022-11-27T08:31:58.753Z,5.90
2022-11-27T08:35:02.538Z,6.16
2022-11-27T08:38:04.456Z,6.20
2022-11-27T08:41:07.326Z,6.25
2022-11-27T08:44:09.677Z,6.10
2022-11-27T08:47:11.875Z,6.09
2022-11-27T08:50:13.829Z,6.19
2022-11-27T08:53:16.515Z,6.08
2022-11-27T08:56:20.121Z,6.19
2022-11-27T08:59:22.302Z,6.08
2022-11-27T09:02:24.235Z,5.93
2022-11-27T09:05:26.852Z,6.01
2022-11-27T09:08:28.749Z,6.20
2022-11-27T09:11:31.990Z,6.43
2022-11-27T09:14:33.891Z,6.43
2022-11-27T09:17:36.169Z,6.32
2022-11-27T09:20:38.046Z,6.36
2022-11-27T09:23:40.312Z,6.34
2022-11-27T09:26:42.210Z,6.43
2022-11-27T09:29:44.402Z,6.37
2022-11-27T09:32:46.262Z,6.50
2022-11-27T09:35:48.392Z,6.52
2022-11-27T09:38:50.294Z,6.43
2022-11-27T09:41:54.793Z,6.37
2022-11-27T09:44:58.243Z,6.28
2022-11-27T09:48:02.836Z,6.08
2022-11-27T09:51:09.548Z,6.03
2022-11-27T09:54:24.503Z,6.06
2022-11-27T09:57:29.236Z,6.12
2022-11-27T10:00:31.444Z,6.20
2022-11-27T10:03:34.271Z,6.03
2022-11-27T10:06:45.180Z,6.02
2022-11-27T10:09:59.559Z,5.97
2022-11-27T10:13:20.273Z,5.99
2022-11-27T10:16:44.537Z,5.81
2022-11-27T10:19:55.978Z,5.91
2022-11-27T10:23:10.393Z,6.03
2022-11-27T10:26:17.100Z,6.08
2022-11-27T10:29:19.234Z,6.03
2022-11-27T10:32:53.518Z,6.19
2022-11-27T10:35:47.893Z,6.14
2022-11-27T10:38:50.258Z,6.26
2022-11-27T10:41:56.694Z,6.22
2022-11-27T10:45:00.671Z,6.11
2022-11-27T10:48:03.106Z,5.96
2022-11-27T10:51:18.909Z,6.05
2022-11-27T10:54:32.350Z,6.09
2022-11-27T10:57:40.402Z,6.16
2022-11-27T11:00:42.648Z,6.22
2022-11-27T11:03:44.779Z,6.31
2022-11-27T11:06:48.936Z,6.34
2022-11-27T11:09:51.798Z,6.36
2022-11-27T11:13:29.704Z,6.41
2022-11-27T11:16:35.309Z,6.36
2022-11-27T11:19:38.989Z,6.55
2022-11-27T11:22:45.346Z,6.41
2022-11-27T11:25:55.515Z,6.26
2022-11-27T11:28:59.239Z,6.08
2022-11-27T11:32:24.905Z,6.16
2022-11-27T11:35:32.734Z,6.26
2022-11-27T11:38:35.623Z,6.25
2022-11-27T11:41:38.097Z,6.21
2022-11-27T11:44:40.748Z,6.17
2022-11-27T11:47:47.421Z,6.10
2022-11-27T11:50:58.437Z,6.13
2022-11-27T11:54:07.049Z,6.02
2022-11-27T11:57:28.426Z,5.92
2022-11-27T12:00:53.161Z,6.05
2022-11-27T12:04:07.398Z,6.08
2022-11-27T12:07:19.341Z,6.05
2022-11-27T12:10:21.496Z,6.01
2022-11-27T12:13:38.977Z,6.04
2022-11-27T12:17:02.795Z,6.19
2022-11-27T12:20:23.556Z,6.21
2022-11-27T12:23:28.789Z,6.26
2022-11-27T12:26:50.027Z,6.22
2022-11-27T12:29:58.208Z,6.22
2022-11-27T12:33:06.234Z,6.24
2022-11-27T12:36:15.810Z,6.12
2022-11-27T12:39:23.942Z,6.06
2022-11-27T12:42:26.965Z,6.06
2022-11-27T12:45:49.401Z,6.01
2022-11-27T12:48:53.411Z,5.98
2022-11-27T12:51:58.815Z,5.97
2022-11-27T12:55:04.049Z,6.03
2022-11-27T12:58:09.507Z,6.02
2022-11-27T13:01:30.258Z,6.25
2022-11-27T13:04:32.136Z,6.23
2022-11-27T13:07:40.749Z,6.19
2022-11-27T13:11:01.073Z,6.09
2022-11-27T13:14:16.018Z,6.06
2022-11-27T13:17:18.127Z,5.93
2022-11-27T13:20:24.558Z,5.87
2022-11-27T13:23:30.363Z,5.83
2022-11-27T13:26:35.038Z,5.76
2022-11-27T13:29:43.981Z,5.76
2022-11-27T13:32:55.049Z,5.66
2022-11-27T13:35:57.431Z,5.73
2022-11-27T13:39:00.953Z,5.73
2022-11-27T13:42:06.788Z,5.63
2022-11-27T13:45:13.264Z,5.56
2022-11-27T13:48:34.344Z,5.59
2022-11-27T13:51:37.742Z,5.52
2022-11-27T13:54:40.165Z,5.64
2022-11-27T13:57:51.044Z,5.56
2022-11-27T14:00:52.969Z,5.54
2022-11-27T14:04:06.144Z,5.61
2022-11-27T14:07:11.187Z,5.48
2022-11-27T14:10:21.836Z,5.43
2022-11-27T14:13:32.687Z,5.42
2022-11-27T14:16:35.794Z,5.45
2022-11-27T14:19:43.572Z,5.44
2022-11-27T14:23:14.337Z,5.39
2022-11-27T14:26:16.668Z,5.26
2022-11-27T14:29:20.800Z,5.28
2022-11-27T14:32:22.682Z,5.25
2022-11-27T14:35:26.572Z,5.29
2022-11-27T14:38:29.602Z,5.15
2022-11-27T14:41:31.794Z,5.21
2022-11-27T14:44:34.319Z,5.11
2022-11-27T14:47:47.107Z,5.18
2022-11-27T14:50:49.695Z,5.20
2022-11-27T14:53:56.817Z,5.11
2022-11-27T14:56:58.922Z,5.15
2022-11-27T15:00:02.285Z,5.17
2022-11-27T15:03:08.388Z,5.13
2022-11-27T15:06:17.553Z,5.09
2022-11-27T15:09:36.375Z,5.05
2022-11-27T15:12:45.280Z,5.09
2022-11-27T15:15:53.513Z,5.08
2022-11-27T15:18:57.720Z,5.07
2022-11-27T15:21:59.807Z,5.13
2022-11-27T15:25:04.364Z,5.25
2022-11-27T15:28:26.567Z,5.43
2022-11-27T15:31:33.919Z,5.23
2022-11-27T15:34:35.866Z,5.19
2022-11-27T15:37:38.905Z,5.04
2022-11-27T15:40:41.181Z,5.16
2022-11-27T15:43:43.341Z,5.40
2022-11-27T15:46:47.016Z,5.36
2022-11-27T15:49:49.254Z,5.38
2022-11-27T15:52:51.223Z,5.38
2022-11-27T15:55:53.475Z,5.32
2022-11-27T15:58:55.397Z,5.21
2022-11-27T16:01:57.960Z,5.27
2022-11-27T16:05:00.276Z,5.21
2022-11-27T16:08:02.268Z,5.22
2022-11-27T16:11:05.934Z,5.25
2022-11-27T16:14:07.939Z,5.20
2022-11-27T16:17:10.134Z,5.24
2022-11-27T16:20:12.320Z,5.27
2022-11-27T16:23:14.545Z,5.20
2022-11-27T16:26:17.047Z,5.17
2022-11-27T16:29:19.265Z,4.99
2022-11-27T16:32:21.727Z,5.11
2022-11-27T16:35:24.877Z,5.16
2022-11-27T16:38:27.390Z,5.15
2022-11-27T16:41:29.534Z,5.23
2022-11-27T16:44:32.240Z,5.23
2022-11-27T16:47:34.831Z,5.26
2022-11-27T16:50:36.916Z,5.21
2022-11-27T16:53:40.863Z,5.25
2022-11-27T16:56:43.096Z,5.17
2022-11-27T16:59:45.397Z,5.22
2022-11-27T17:02:47.541Z,5.20
2022-11-27T17:05:51.584Z,5.20
2022-11-27T17:08:54.375Z,5.24
2022-11-27T17:11:56.597Z,5.20
2022-11-27T17:14:59.609Z,5.35
2022-11-27T17:18:02.444Z,5.31
2022-11-27T17:21:10.089Z,5.21
2022-11-27T17:24:15.378Z,5.28
2022-11-27T17:27:18.450Z,5.27
2022-11-27T17:30:20.625Z,5.22
2022-11-27T17:33:22.561Z,5.16
2022-11-27T17:36:25.502Z,5.17
2022-11-27T17:39:27.425Z,5.18
2022-11-27T17:42:29.617Z,5.13
2022-11-27T17:45:31.599Z,5.12
2022-11-27T17:48:34.429Z,5.09
2022-11-27T17:51:36.544Z,4.98
2022-11-27T17:54:38.880Z,5.01
2022-11-27T17:57:40.788Z,4.94
2022-11-27T18:00:43.418Z,4.91
2022-11-27T18:03:47.369Z,4.92
2022-11-27T18:06:49.577Z,4.87
2022-11-27T18:09:54.275Z,4.82
2022-11-27T18:12:56.562Z,4.72
2022-11-27T18:16:06.178Z,4.68
2022-11-27T18:19:09.622Z,4.71
2022-11-27T18:22:14.392Z,4.77
2022-11-27T18:25:16.336Z,4.74
2022-11-27T18:28:18.621Z,4.71
2022-11-27T18:31:20.601Z,4.72
2022-11-27T18:34:22.841Z,4.67
2022-11-27T18:37:26.225Z,4.65
2022-11-27T18:40:28.580Z,4.69
2022-11-27T18:43:32.446Z,4.69
2022-11-27T18:46:34.896Z,4.67
2022-11-27T18:49:37.712Z,4.60
2022-11-27T18:52:39.886Z,4.65
2022-11-27T18:55:42.375Z,4.74
2022-11-27T18:58:46.412Z,4.65
2022-11-27T19:01:48.506Z,4.60
2022-11-27T19:04:50.936Z,4.55
2022-11-27T19:07:53.143Z,4.59
2022-11-27T19:10:57.145Z,4.67
2022-11-27T19:13:59.199Z,4.68
2022-11-27T19:17:01.826Z,4.71
2022-11-27T19:20:06.720Z,4.60
2022-11-27T19:23:09.177Z,4.62
2022-11-27T19:26:12.317Z,4.72
2022-11-27T19:29:15.826Z,4.78
2022-11-27T19:32:18.497Z,4.79
2022-11-27T19:35:24.534Z,4.71
2022-11-27T19:38:27.597Z,4.72
2022-11-27T19:41:30.140Z,4.73
2022-11-27T19:44:35.009Z,4.76
2022-11-27T19:47:38.036Z,4.73
2022-11-27T19:50:39.993Z,4.81
2022-11-27T19:53:42.761Z,4.87
2022-11-27T19:56:47.157Z,4.81
2022-11-27T19:59:49.441Z,4.82
2022-11-27T20:02:52.016Z,4.75
2022-11-27T20:06:01.257Z,4.78
2022-11-27T20:09:04.549Z,4.78
2022-11-27T20:12:07.497Z,4.76
2022-11-27T20:15:14.381Z,4.71
2022-11-27T20:18:17.026Z,4.70
2022-11-27T20:21:20.337Z,4.62
2022-11-27T20:24:22.703Z,4.59
2022-11-27T20:27:24.604Z,4.60
2022-11-27T20:30:28.030Z,4.64
2022-11-27T20:33:30.868Z,4.60
2022-11-27T20:36:34.282Z,4.56
2022-11-27T20:39:36.406Z,4.46
2022-11-27T20:42:38.641Z,4.54
2022-11-27T20:45:41.170Z,4.64
2022-11-27T20:48:47.025Z,4.64
2022-11-27T20:51:50.432Z,4.56
2022-11-27T20:54:55.157Z,4.62
2022-11-27T20:57:57.655Z,4.65
2022-11-27T21:01:00.065Z,4.55
2022-11-27T21:04:04.401Z,4.48
2022-11-27T21:07:06.740Z,4.44
2022-11-27T21:10:09.946Z,4.47
2022-11-27T21:13:12.106Z,4.47
2022-11-27T21:16:14.296Z,4.39
2022-11-27T21:19:20.967Z,4.31
2022-11-27T21:22:23.332Z,4.36
2022-11-27T21:25:25.865Z,4.22
2022-11-27T21:28:27.846Z,4.35
2022-11-27T21:31:34.510Z,4.20
2022-11-27T21:34:40.012Z,4.17
2022-11-27T21:37:43.899Z,4.12
2022-11-27T21:40:45.880Z,4.04
2022-11-27T21:43:48.862Z,4.21
2022-11-27T21:46:51.361Z,4.12
2022-11-27T21:49:53.685Z,4.02
2022-11-27T21:52:55.594Z,4.07
2022-11-27T21:55:57.997Z,3.99
2022-11-27T21:59:00.244Z,3.99
2022-11-27T22:02:02.907Z,4.11
2022-11-27T22:05:05.377Z,4.12
2022-11-27T22:08:07.318Z,4.12
2022-11-27T22:11:10.449Z,4.37
2022-11-27T22:14:13.525Z,4.24
2022-11-27T22:17:16.070Z,4.31
2022-11-27T22:20:18.089Z,4.22
2022-11-27T22:23:20.272Z,4.16
2022-11-27T22:26:23.741Z,4.15
2022-11-27T22:29:25.988Z,4.10
2022-11-27T22:32:27.992Z,4.12
2022-11-27T22:35:30.399Z,4.31
2022-11-27T22:38:32.329Z,4.33
2022-11-27T22:41:36.735Z,4.42
2022-11-27T22:44:39.277Z,4.44
2022-11-27T22:47:41.626Z,4.53
2022-11-27T22:50:43.660Z,4.55
2022-11-27T22:53:46.423Z,4.55
2022-11-27T22:56:48.375Z,4.53
2022-11-27T22:59:50.533Z,4.44
2022-11-27T23:02:53.309Z,4.55
2022-11-27T23:05:55.533Z,4.37
2022-11-27T23:08:57.549Z,4.30
2022-11-27T23:11:59.729Z,4.41
2022-11-27T23:15:01.638Z,4.26
2022-11-27T23:18:04.363Z,4.35
2022-11-27T23:21:07.495Z,4.33
2022-11-27T23:24:11.161Z,4.44
2022-11-27T23:27:13.052Z,4.48
2022-11-27T23:30:15.319Z,4.32
2022-11-27T23:33:17.178Z,4.37
2022-11-27T23:36:19.392Z,4.35
2022-11-27T23:39:21.301Z,4.34
2022-11-27T23:42:23.489Z,4.21
2022-11-27T23:45:25.374Z,4.17
2022-11-27T23:48:27.728Z,4.02
2022-11-27T23:51:31.107Z,4.06
2022-11-27T23:54:33.333Z,4.02
2022-11-27T23:57:35.317Z,4.04
